createdAt,value
2019-05-18T00:01:33.858Z,73.00
2019-05-18T00:04:02.577Z,72.80
2019-05-18T00:06:31.269Z,72.40
2019-05-18T00:09:00.009Z,73.10
2019-05-18T00:11:28.748Z,73.90
2019-05-18T00:13:57.465Z,74.60
2019-05-18T00:16:26.150Z,74.00
2019-05-18T00:18:54.890Z,73.50
2019-05-18T00:21:23.564Z,74.20
2019-05-18T00:23:52.305Z,74.50
2019-05-18T00:26:21.026Z,74.60
2019-05-18T00:28:49.778Z,74.30
2019-05-18T00:31:18.502Z,73.50
2019-05-18T00:33:47.256Z,73.20
2019-05-18T00:36:15.980Z,74.40
2019-05-18T00:38:44.717Z,75.00
2019-05-18T00:41:13.457Z,74.90
2019-05-18T00:43:42.193Z,74.50
2019-05-18T00:46:10.918Z,74.00
2019-05-18T00:48:39.663Z,74.50
2019-05-18T00:51:08.400Z,75.20
2019-05-18T00:53:37.148Z,75.70
2019-05-18T00:56:06.059Z,75.30
2019-05-18T00:58:34.836Z,75.30
2019-05-18T01:01:03.578Z,75.00
2019-05-18T01:03:32.334Z,75.10
2019-05-18T01:06:01.057Z,75.00
2019-05-18T01:08:29.777Z,75.10
2019-05-18T01:10:58.452Z,75.40
2019-05-18T01:13:27.202Z,75.70
2019-05-18T01:15:55.939Z,75.50
2019-05-18T01:18:24.698Z,75.60
2019-05-18T01:20:53.490Z,75.50
2019-05-18T01:23:22.156Z,75.40
2019-05-18T01:25:50.901Z,76.00
2019-05-18T01:28:19.625Z,76.00
2019-05-18T01:30:48.395Z,75.70
2019-05-18T01:33:17.094Z,75.40
2019-05-18T01:35:45.914Z,75.50
2019-05-18T01:38:14.659Z,75.70
2019-05-18T01:40:43.379Z,75.60
2019-05-18T01:43:12.129Z,76.20
2019-05-18T01:45:40.877Z,76.10
2019-05-18T01:48:14.086Z,75.90
2019-05-18T01:50:39.974Z,76.20
2019-05-18T01:53:08.785Z,76.80
2019-05-18T01:55:37.542Z,77.80
2019-05-18T01:58:06.312Z,77.30
2019-05-18T02:00:34.990Z,76.90
2019-05-18T02:03:03.834Z,76.90
2019-05-18T02:05:32.537Z,77.70
2019-05-18T02:08:01.284Z,78.00
2019-05-18T02:10:30.074Z,77.80
2019-05-18T02:12:58.824Z,77.80
2019-05-18T02:15:27.570Z,78.10
2019-05-18T02:17:56.306Z,78.70
2019-05-18T02:20:25.069Z,78.90
2019-05-18T02:22:53.825Z,79.20
2019-05-18T02:25:22.594Z,79.90
2019-05-18T02:27:51.325Z,80.70
2019-05-18T02:30:20.201Z,81.50
2019-05-18T02:32:48.963Z,81.70
2019-05-18T02:35:17.760Z,81.40
2019-05-18T02:37:46.486Z,81.20
2019-05-18T02:40:16.215Z,81.80
2019-05-18T02:42:46.097Z,83.30
2019-05-18T02:45:16.457Z,84.50
2019-05-18T02:47:45.183Z,84.20
2019-05-18T02:50:14.744Z,82.60
2019-05-18T02:52:43.477Z,81.50
2019-05-18T02:55:13.580Z,80.80
2019-05-18T02:57:42.295Z,79.90
2019-05-18T03:00:11.674Z,79.50
2019-05-18T03:02:40.409Z,79.90
2019-05-18T03:05:09.386Z,80.50
2019-05-18T03:07:38.086Z,80.70
2019-05-18T03:10:07.555Z,81.00
2019-05-18T03:12:36.320Z,80.40
2019-05-18T03:15:06.557Z,81.90
2019-05-18T03:17:35.563Z,81.60
2019-05-18T03:20:09.046Z,81.90
2019-05-18T03:22:37.857Z,82.10
2019-05-18T03:25:07.330Z,82.70
2019-05-18T03:27:36.235Z,83.60
2019-05-18T03:30:07.615Z,82.80
2019-05-18T03:32:36.398Z,82.30
2019-05-18T03:35:05.706Z,82.80
2019-05-18T03:37:34.427Z,83.50
2019-05-18T03:40:04.694Z,83.70
2019-05-18T03:42:33.529Z,83.60
2019-05-18T03:45:02.268Z,84.30
2019-05-18T03:47:30.997Z,85.60
2019-05-18T03:49:59.743Z,86.00
2019-05-18T03:52:28.481Z,84.70
2019-05-18T03:54:57.229Z,84.40
2019-05-18T03:57:25.954Z,83.80
2019-05-18T03:59:54.762Z,82.90
2019-05-18T04:02:23.493Z,82.40
2019-05-18T04:04:52.239Z,81.80
2019-05-18T04:07:20.962Z,81.30
2019-05-18T04:09:49.701Z,81.30
2019-05-18T04:12:18.432Z,81.40
2019-05-18T04:14:47.182Z,82.00
2019-05-18T04:17:15.936Z,82.30
2019-05-18T04:19:46.752Z,80.80
2019-05-18T04:22:15.040Z,79.80
2019-05-18T04:24:43.782Z,79.60
2019-05-18T04:27:12.526Z,80.30
2019-05-18T04:29:41.838Z,80.80
2019-05-18T04:32:10.578Z,79.80
2019-05-18T04:34:39.259Z,79.40
2019-05-18T04:37:07.988Z,79.80
2019-05-18T04:39:36.858Z,79.80
2019-05-18T04:42:05.604Z,80.00
2019-05-18T04:44:34.337Z,79.80
2019-05-18T04:47:03.085Z,79.50
2019-05-18T04:49:31.821Z,79.60
2019-05-18T04:52:00.563Z,79.20
2019-05-18T04:54:29.307Z,78.90
2019-05-18T04:56:58.030Z,79.10
2019-05-18T04:59:26.779Z,79.80
2019-05-18T05:01:55.545Z,81.20
2019-05-18T05:04:24.287Z,83.00
2019-05-18T05:06:53.010Z,83.90
2019-05-18T05:09:21.754Z,84.40
2019-05-18T05:11:50.505Z,82.80
2019-05-18T05:14:19.231Z,81.50
2019-05-18T05:16:48.039Z,81.80
2019-05-18T05:19:16.690Z,82.80
2019-05-18T05:21:45.337Z,82.50
2019-05-18T05:24:13.970Z,81.10
2019-05-18T05:26:42.883Z,79.90
2019-05-18T05:29:11.609Z,78.90
2019-05-18T05:31:40.354Z,78.80
2019-05-18T05:34:09.076Z,78.90
2019-05-18T05:36:37.820Z,80.30
2019-05-18T05:39:07.027Z,79.70
2019-05-18T05:41:35.768Z,79.30
2019-05-18T05:44:04.554Z,79.40
2019-05-18T05:46:33.313Z,78.60
2019-05-18T05:49:02.058Z,78.50
2019-05-18T05:51:30.774Z,78.80
2019-05-18T05:53:59.427Z,78.60
2019-05-18T05:56:28.168Z,79.70
2019-05-18T05:58:56.907Z,79.70
2019-05-18T06:01:25.628Z,79.30
2019-05-18T06:03:54.354Z,78.90
2019-05-18T06:06:23.257Z,78.90
2019-05-18T06:08:51.963Z,78.80
2019-05-18T06:11:20.708Z,78.70
2019-05-18T06:13:49.417Z,78.70
2019-05-18T06:16:18.146Z,78.00
2019-05-18T06:18:46.817Z,77.30
2019-05-18T06:21:15.534Z,77.30
2019-05-18T06:23:44.346Z,76.70
2019-05-18T06:26:13.148Z,75.70
2019-05-18T06:28:41.878Z,76.80
2019-05-18T06:31:10.636Z,76.70
2019-05-18T06:33:39.384Z,76.40
2019-05-18T06:36:08.157Z,76.10
2019-05-18T06:38:36.891Z,76.10
2019-05-18T06:41:05.627Z,76.10
2019-05-18T06:43:34.381Z,76.30
2019-05-18T06:46:03.113Z,76.80
2019-05-18T06:48:31.943Z,77.40
2019-05-18T06:51:07.059Z,75.80
2019-05-18T06:53:33.121Z,74.20
2019-05-18T06:56:02.834Z,72.90
2019-05-18T06:58:31.897Z,73.30
2019-05-18T07:01:00.641Z,73.80
2019-05-18T07:03:29.343Z,73.10
2019-05-18T07:05:58.089Z,71.60
2019-05-18T07:08:26.810Z,72.00
2019-05-18T07:10:55.569Z,72.10
2019-05-18T07:13:24.327Z,71.50
2019-05-18T07:15:53.090Z,72.20
2019-05-18T07:18:21.827Z,72.00
2019-05-18T07:20:50.571Z,71.00
2019-05-18T07:23:19.310Z,70.30
2019-05-18T07:25:48.106Z,70.30
2019-05-18T07:28:16.876Z,70.30
2019-05-18T07:30:45.610Z,70.50
2019-05-18T07:33:14.257Z,69.60
2019-05-18T07:35:42.984Z,69.70
2019-05-18T07:38:11.744Z,70.00
2019-05-18T07:40:40.491Z,70.10
2019-05-18T07:43:09.205Z,69.80
2019-05-18T07:45:37.930Z,69.10
2019-05-18T07:48:06.787Z,68.60
2019-05-18T07:50:35.533Z,68.90
2019-05-18T07:53:04.278Z,68.00
2019-05-18T07:55:33.016Z,66.80
2019-05-18T07:58:01.854Z,66.70
2019-05-18T08:00:30.582Z,66.70
2019-05-18T08:02:59.566Z,67.60
2019-05-18T08:05:28.797Z,69.30
2019-05-18T08:07:58.884Z,69.20
2019-05-18T08:10:30.704Z,69.10
2019-05-18T08:12:59.434Z,68.90
2019-05-18T08:15:28.258Z,68.80
2019-05-18T08:17:56.998Z,68.50
2019-05-18T08:20:25.761Z,68.00
2019-05-18T08:22:54.506Z,68.40
2019-05-18T08:25:23.301Z,68.40
2019-05-18T08:27:53.753Z,68.50
2019-05-18T08:30:22.505Z,68.50
2019-05-18T08:32:52.784Z,68.50
2019-05-18T08:35:21.526Z,68.60
2019-05-18T08:37:50.278Z,67.40
2019-05-18T08:40:19.982Z,66.90
2019-05-18T08:42:48.711Z,65.00
2019-05-18T08:45:17.982Z,64.90
2019-05-18T08:47:46.726Z,64.20
2019-05-18T08:50:15.523Z,63.50
2019-05-18T08:52:44.263Z,63.50
2019-05-18T08:55:13.630Z,63.80
2019-05-18T08:57:42.360Z,62.60
2019-05-18T09:00:12.344Z,62.60
2019-05-18T09:02:41.150Z,63.80
2019-05-18T09:05:10.542Z,64.40
2019-05-18T09:07:39.339Z,64.40
2019-05-18T09:10:08.523Z,64.20
2019-05-18T09:12:37.280Z,63.00
2019-05-18T09:15:07.738Z,62.30
2019-05-18T09:17:36.476Z,61.60
2019-05-18T09:20:07.570Z,61.30
2019-05-18T09:22:36.298Z,61.00
2019-05-18T09:25:08.359Z,61.20
2019-05-18T09:27:37.094Z,61.10
2019-05-18T09:30:08.261Z,61.40
2019-05-18T09:32:37.689Z,60.20
2019-05-18T09:35:08.576Z,59.70
2019-05-18T09:37:37.313Z,60.50
2019-05-18T09:40:07.772Z,59.30
2019-05-18T09:42:36.496Z,58.90
2019-05-18T09:45:07.056Z,58.80
2019-05-18T09:47:35.859Z,59.80
2019-05-18T09:50:05.846Z,59.10
2019-05-18T09:52:44.975Z,58.70
2019-05-18T09:55:08.553Z,58.20
2019-05-18T09:57:37.307Z,58.80
2019-05-18T10:00:10.538Z,58.60
2019-05-18T10:02:39.351Z,57.70
2019-05-18T10:05:08.246Z,57.60
2019-05-18T10:07:36.982Z,58.60
2019-05-18T10:10:07.874Z,58.90
2019-05-18T10:12:36.590Z,58.80
2019-05-18T10:15:07.090Z,57.80
2019-05-18T10:17:35.859Z,58.00
2019-05-18T10:20:08.170Z,58.10
2019-05-18T10:22:36.897Z,57.60
2019-05-18T10:25:07.311Z,58.00
2019-05-18T10:27:36.119Z,57.40
2019-05-18T10:30:08.227Z,57.80
2019-05-18T10:32:38.426Z,58.80
2019-05-18T10:35:07.762Z,57.90
2019-05-18T10:37:38.718Z,57.60
2019-05-18T10:40:10.286Z,58.20
2019-05-18T10:42:41.210Z,58.50
2019-05-18T10:45:10.787Z,58.20
2019-05-18T10:47:41.023Z,58.20
2019-05-18T10:50:11.064Z,58.90
2019-05-18T10:52:39.851Z,58.70
2019-05-18T10:55:09.651Z,59.00
2019-05-18T10:57:38.390Z,58.40
2019-05-18T11:00:09.282Z,56.20
2019-05-18T11:02:37.989Z,54.60
2019-05-18T11:05:08.058Z,54.10
2019-05-18T11:07:36.815Z,54.50
2019-05-18T11:10:07.385Z,55.20
2019-05-18T11:12:36.146Z,54.60
2019-05-18T11:15:07.159Z,54.20
2019-05-18T11:17:35.975Z,55.70
2019-05-18T11:20:07.722Z,55.70
2019-05-18T11:22:36.499Z,55.90
2019-05-18T11:25:06.710Z,55.10
2019-05-18T11:27:35.586Z,53.30
2019-05-18T11:30:06.279Z,54.10
2019-05-18T11:32:35.011Z,56.00
2019-05-18T11:35:05.304Z,55.80
2019-05-18T11:37:34.091Z,55.10
2019-05-18T11:40:03.907Z,55.90
2019-05-18T11:42:32.626Z,56.70
2019-05-18T11:45:01.491Z,56.90
2019-05-18T11:47:30.294Z,56.20
2019-05-18T11:49:59.268Z,56.50
2019-05-18T11:52:28.420Z,55.30
2019-05-18T11:54:57.178Z,54.10
2019-05-18T11:57:25.926Z,53.00
2019-05-18T11:59:54.666Z,51.90
2019-05-18T12:02:23.452Z,51.20
2019-05-18T12:04:52.197Z,51.10
2019-05-18T12:07:20.943Z,51.40
2019-05-18T12:09:49.702Z,50.20
2019-05-18T12:12:18.586Z,48.80
2019-05-18T12:14:47.347Z,49.50
2019-05-18T12:17:16.182Z,48.30
2019-05-18T12:19:44.914Z,47.40
2019-05-18T12:22:13.646Z,47.80
2019-05-18T12:24:42.409Z,48.70
2019-05-18T12:27:11.217Z,48.30
2019-05-18T12:29:39.978Z,48.80
2019-05-18T12:32:08.743Z,49.00
2019-05-18T12:34:37.489Z,48.30
2019-05-18T12:37:06.258Z,47.80
2019-05-18T12:39:35.064Z,47.50
2019-05-18T12:42:03.894Z,46.60
2019-05-18T12:44:32.709Z,46.20
2019-05-18T12:47:01.452Z,46.80
2019-05-18T12:49:30.314Z,46.90
2019-05-18T12:51:59.163Z,46.10
2019-05-18T12:54:33.991Z,46.60
2019-05-18T12:56:58.362Z,45.60
2019-05-18T12:59:27.163Z,46.30
2019-05-18T13:01:55.972Z,46.50
2019-05-18T13:04:24.828Z,47.00
2019-05-18T13:06:53.553Z,47.00
2019-05-18T13:09:23.774Z,46.80
2019-05-18T13:11:53.666Z,46.20
2019-05-18T13:14:22.402Z,45.30
2019-05-18T13:16:51.267Z,44.00
2019-05-18T13:19:19.970Z,43.40
2019-05-18T13:21:48.767Z,43.80
2019-05-18T13:24:17.551Z,42.90
2019-05-18T13:26:46.292Z,42.90
2019-05-18T13:29:15.173Z,42.50
2019-05-18T13:31:43.916Z,42.00
2019-05-18T13:34:12.772Z,42.20
2019-05-18T13:36:41.494Z,42.80
2019-05-18T13:39:10.312Z,43.70
2019-05-18T13:41:39.039Z,44.50
2019-05-18T13:44:07.849Z,45.00
2019-05-18T13:46:36.612Z,46.20
2019-05-18T13:49:05.347Z,45.50
2019-05-18T13:51:34.077Z,45.60
2019-05-18T13:54:02.814Z,46.20
2019-05-18T13:56:31.567Z,43.90
2019-05-18T13:59:00.289Z,44.30
2019-05-18T14:01:29.042Z,43.60
2019-05-18T14:03:57.791Z,43.90
2019-05-18T14:06:26.522Z,43.70
2019-05-18T14:08:55.341Z,42.90
2019-05-18T14:11:26.583Z,42.20
2019-05-18T14:13:55.320Z,42.20
2019-05-18T14:16:24.062Z,43.20
2019-05-18T14:18:52.806Z,44.20
2019-05-18T14:21:21.538Z,44.40
2019-05-18T14:23:50.286Z,45.00
2019-05-18T14:26:19.037Z,45.20
2019-05-18T14:28:47.771Z,45.00
2019-05-18T14:31:16.508Z,44.90
2019-05-18T14:33:45.244Z,44.80
2019-05-18T14:36:14.240Z,44.10
2019-05-18T14:38:42.913Z,44.50
2019-05-18T14:41:11.656Z,45.10
2019-05-18T14:43:40.401Z,45.20
2019-05-18T14:46:09.234Z,45.40
2019-05-18T14:48:37.938Z,45.00
2019-05-18T14:51:06.747Z,45.30
2019-05-18T14:53:38.430Z,44.20
2019-05-18T14:56:07.237Z,44.00
2019-05-18T14:58:35.902Z,43.90
2019-05-18T15:01:04.637Z,44.00
2019-05-18T15:03:33.344Z,44.00
2019-05-18T15:06:02.107Z,44.90
2019-05-18T15:08:30.843Z,45.00
2019-05-18T15:10:59.584Z,45.50
2019-05-18T15:13:28.326Z,46.00
2019-05-18T15:15:57.088Z,47.00
2019-05-18T15:18:25.858Z,48.00
2019-05-18T15:20:54.580Z,48.30
2019-05-18T15:23:23.354Z,48.70
2019-05-18T15:25:52.117Z,48.60
2019-05-18T15:28:20.860Z,48.90
2019-05-18T15:30:49.657Z,49.70
2019-05-18T15:33:18.371Z,49.70
2019-05-18T15:35:47.132Z,49.70
2019-05-18T15:38:15.952Z,49.70
2019-05-18T15:40:44.743Z,49.00
2019-05-18T15:43:13.486Z,49.30
2019-05-18T15:45:42.298Z,49.80
2019-05-18T15:48:11.034Z,49.70
2019-05-18T15:50:39.858Z,50.00
2019-05-18T15:53:08.592Z,50.40
2019-05-18T15:55:37.381Z,50.90
2019-05-18T15:58:06.128Z,51.60
2019-05-18T16:00:34.941Z,52.00
2019-05-18T16:03:03.683Z,52.20
2019-05-18T16:05:32.489Z,52.60
2019-05-18T16:08:01.245Z,52.10
2019-05-18T16:10:30.113Z,52.70
2019-05-18T16:12:58.870Z,53.20
2019-05-18T16:15:27.631Z,53.10
2019-05-18T16:17:56.387Z,53.60
2019-05-18T16:20:25.242Z,53.90
2019-05-18T16:22:53.985Z,55.60
2019-05-18T16:25:22.850Z,54.50
2019-05-18T16:27:51.609Z,55.00
2019-05-18T16:30:20.571Z,55.20
2019-05-18T16:32:49.313Z,56.70
2019-05-18T16:35:18.198Z,57.70
2019-05-18T16:37:46.954Z,57.30
2019-05-18T16:40:16.643Z,57.70
2019-05-18T16:42:46.670Z,57.00
2019-05-18T16:45:15.972Z,55.50
2019-05-18T16:47:44.799Z,53.90
2019-05-18T16:50:14.148Z,52.80
2019-05-18T16:52:42.890Z,52.10
2019-05-18T16:55:11.901Z,48.80
2019-05-18T16:57:40.674Z,47.40
2019-05-18T17:00:16.234Z,46.10
2019-05-18T17:02:44.168Z,47.10
2019-05-18T17:05:14.010Z,48.20
2019-05-18T17:07:42.796Z,49.70
2019-05-18T17:10:12.237Z,49.80
2019-05-18T17:12:44.040Z,51.60
2019-05-18T17:15:13.923Z,53.00
2019-05-18T17:17:42.653Z,52.80
2019-05-18T17:20:13.523Z,54.30
2019-05-18T17:22:42.272Z,53.80
2019-05-18T17:25:11.158Z,54.20
2019-05-18T17:27:39.906Z,54.30
2019-05-18T17:30:09.890Z,53.50
2019-05-18T17:32:38.638Z,54.50
2019-05-18T17:35:08.718Z,54.80
2019-05-18T17:37:37.440Z,54.90
2019-05-18T17:40:06.668Z,55.70
2019-05-18T17:42:35.459Z,55.80
2019-05-18T17:45:08.678Z,56.50
2019-05-18T17:47:36.620Z,56.50
2019-05-18T17:50:09.402Z,56.70
2019-05-18T17:52:38.147Z,57.20
2019-05-18T17:55:07.780Z,57.70
2019-05-18T17:57:36.488Z,57.80
2019-05-18T18:00:06.966Z,56.70
2019-05-18T18:02:35.878Z,57.00
2019-05-18T18:05:06.761Z,57.90
2019-05-18T18:07:35.598Z,57.90
2019-05-18T18:10:06.008Z,57.70
2019-05-18T18:12:34.759Z,57.30
2019-05-18T18:15:05.618Z,57.60
2019-05-18T18:17:34.350Z,57.70
2019-05-18T18:20:03.550Z,57.70
2019-05-18T18:22:32.293Z,58.20
2019-05-18T18:25:01.026Z,58.30
2019-05-18T18:27:29.864Z,58.40
2019-05-18T18:29:58.610Z,58.00
2019-05-18T18:32:27.318Z,58.40
2019-05-18T18:34:56.070Z,58.70
2019-05-18T18:37:24.800Z,59.10
2019-05-18T18:39:53.630Z,60.10
2019-05-18T18:42:22.381Z,59.90
2019-05-18T18:44:51.125Z,60.40
2019-05-18T18:47:19.962Z,60.30
2019-05-18T18:49:48.708Z,59.40
2019-05-18T18:52:17.497Z,59.60
2019-05-18T18:54:46.262Z,60.20
2019-05-18T18:57:14.985Z,60.50
2019-05-18T18:59:43.708Z,61.10
2019-05-18T19:02:12.456Z,61.10
2019-05-18T19:04:41.331Z,61.10
2019-05-18T19:07:10.067Z,62.00
2019-05-18T19:09:38.805Z,61.20
2019-05-18T19:12:07.526Z,62.30
2019-05-18T19:14:36.273Z,62.80
2019-05-18T19:17:05.021Z,63.00
2019-05-18T19:19:33.758Z,63.10
2019-05-18T19:22:02.504Z,62.60
2019-05-18T19:24:31.244Z,63.00
2019-05-18T19:27:00.018Z,63.10
2019-05-18T19:29:28.737Z,62.60
2019-05-18T19:31:57.466Z,63.10
2019-05-18T19:34:26.211Z,64.00
2019-05-18T19:36:54.958Z,64.30
2019-05-18T19:39:23.681Z,63.90
2019-05-18T19:41:52.433Z,64.40
2019-05-18T19:44:23.828Z,64.10
2019-05-18T19:46:51.513Z,64.40
2019-05-18T19:49:20.310Z,65.00
2019-05-18T19:51:49.056Z,65.70
2019-05-18T19:54:17.809Z,65.20
2019-05-18T19:56:46.919Z,64.20
2019-05-18T19:59:16.134Z,64.10
2019-05-18T20:01:44.801Z,64.30
2019-05-18T20:04:13.580Z,64.60
2019-05-18T20:06:42.479Z,64.90
2019-05-18T20:09:11.246Z,64.90
2019-05-18T20:11:39.973Z,64.90
2019-05-18T20:14:08.697Z,64.70
2019-05-18T20:16:37.486Z,64.70
2019-05-18T20:19:06.265Z,64.80
2019-05-18T20:21:35.050Z,64.20
2019-05-18T20:24:03.907Z,64.10
2019-05-18T20:26:32.669Z,64.30
2019-05-18T20:29:01.555Z,64.60
2019-05-18T20:31:30.622Z,64.10
2019-05-18T20:33:59.379Z,64.70
2019-05-18T20:36:28.112Z,65.50
2019-05-18T20:38:56.865Z,64.60
2019-05-18T20:41:25.625Z,63.80
2019-05-18T20:43:54.355Z,64.80
2019-05-18T20:46:23.109Z,64.50
2019-05-18T20:48:51.848Z,64.70
2019-05-18T20:51:20.593Z,64.30
2019-05-18T20:53:49.316Z,64.00
2019-05-18T20:56:18.070Z,64.00
2019-05-18T20:58:46.809Z,63.20
2019-05-18T21:01:15.522Z,63.20
2019-05-18T21:03:44.253Z,63.50
2019-05-18T21:06:12.993Z,63.60
2019-05-18T21:08:41.789Z,64.70
2019-05-18T21:11:10.494Z,65.40
2019-05-18T21:13:39.279Z,65.30
2019-05-18T21:16:09.346Z,65.90
2019-05-18T21:18:39.774Z,66.30
2019-05-18T21:21:10.199Z,65.40
2019-05-18T21:23:40.538Z,66.80
2019-05-18T21:26:09.260Z,66.90
2019-05-18T21:28:38.017Z,67.20
2019-05-18T21:31:06.743Z,67.00
2019-05-18T21:33:35.502Z,66.70
2019-05-18T21:36:04.313Z,66.90
2019-05-18T21:38:33.609Z,67.40
2019-05-18T21:41:02.350Z,67.00
2019-05-18T21:43:31.006Z,67.30
2019-05-18T21:45:59.690Z,67.10
2019-05-18T21:48:28.401Z,66.70
2019-05-18T21:50:57.053Z,67.30
2019-05-18T21:53:25.809Z,67.10
2019-05-18T21:55:54.546Z,67.70
2019-05-18T21:58:23.302Z,67.80
2019-05-18T22:00:52.050Z,68.90
2019-05-18T22:03:20.794Z,67.80
2019-05-18T22:05:49.506Z,67.80
2019-05-18T22:08:18.286Z,67.70
2019-05-18T22:10:47.004Z,68.70
2019-05-18T22:13:15.746Z,68.70
2019-05-18T22:15:44.470Z,68.10
2019-05-18T22:18:24.126Z,68.60
2019-05-18T22:20:44.503Z,67.70
2019-05-18T22:23:13.629Z,67.90
2019-05-18T22:25:42.349Z,68.40
2019-05-18T22:28:11.093Z,68.90
2019-05-18T22:30:39.946Z,68.90
2019-05-18T22:33:08.963Z,69.00
2019-05-18T22:35:37.719Z,69.60
2019-05-18T22:38:06.457Z,68.80
2019-05-18T22:40:35.152Z,69.40
2019-05-18T22:43:03.964Z,69.80
2019-05-18T22:45:32.693Z,69.70
2019-05-18T22:48:01.437Z,68.90
2019-05-18T22:50:30.172Z,68.70
2019-05-18T22:52:58.915Z,69.00
2019-05-18T22:55:27.658Z,68.80
2019-05-18T22:57:56.396Z,68.30
2019-05-18T23:00:25.204Z,68.70
2019-05-18T23:02:54.001Z,69.50
2019-05-18T23:05:22.671Z,70.10
2019-05-18T23:07:51.394Z,70.10
2019-05-18T23:10:20.272Z,69.70
2019-05-18T23:12:49.073Z,70.70
2019-05-18T23:15:18.147Z,71.00
2019-05-18T23:17:46.869Z,70.50
2019-05-18T23:20:15.854Z,69.70
2019-05-18T23:22:44.611Z,69.50
2019-05-18T23:25:13.404Z,70.40
2019-05-18T23:27:42.134Z,70.40
2019-05-18T23:30:12.109Z,69.90
2019-05-18T23:32:40.833Z,70.50
2019-05-18T23:35:09.717Z,70.50
2019-05-18T23:37:38.439Z,70.40
2019-05-18T23:40:08.025Z,71.30
2019-05-18T23:42:36.748Z,71.50
2019-05-18T23:45:06.725Z,71.60
2019-05-18T23:47:35.481Z,71.20
2019-05-18T23:50:04.947Z,71.40
2019-05-18T23:52:33.686Z,71.50
2019-05-18T23:55:06.072Z,72.00
2019-05-18T23:57:34.893Z,72.30
